• Join FlightAware (Why Join?)
  • Login
  • US Flag 
09:28AM EDT


 

Airport Tracker/Info


-or-


 

Live Flight TrackerFlight Track Log ✈ N600TR ✈ 23-Aug-2013 ✈ KATL - KBNA

Flight Track Log - Related Links

Times and Time Zones

All times are in EDT time to prevent confusion due to time zone crossing. See the N600TR flight status page for this flight to view local times or setup timezone preferences in your user account.

Time Position Orientation Groundspeed Altitude Reporting Facility
EDT Latitude Longitude Course Direction KTS MPH feet Rate Location/Type
08:42AM 33.6667 -84.5000 328° Northwest 234 269 3,500  Level Atlanta TRACON
08:43AM 33.7000 -84.5833 296° West 272 313 6,600 2,160 Climbing Atlanta TRACON
08:44AM 34.0322 -84.5212 349° North  Level FlightAware Approximate
08:45AM 34.1256 -84.5454 347° North  Level FlightAware Approximate
08:45AM 33.8828 -84.6042 355° North 299 344 10,500  Level Atlanta Center
08:46AM 34.2206 -84.5823 328° Northwest  Level FlightAware Approximate
08:46AM 33.9808 -84.6150 355° North 329 379 12,700  Level Atlanta Center
08:47AM 34.3058 -84.6474 328° Northwest  Level FlightAware Approximate
08:47AM 34.0808 -84.6231 356° North 348 400 14,900  Level Atlanta Center
08:48AM 34.1872 -84.6289 357° North 361 415 16,900 1,800 Climbing Atlanta Center
08:49AM 34.2808 -84.6825 335° Northwest 368 423 18,600 1,620 Climbing Atlanta Center
08:50AM 34.3703 -84.7661 322° Northwest 368 423 20,200 1,500 Climbing Atlanta Center
08:51AM 34.4639 -84.8325 330° Northwest 387 445 21,600 1,320 Climbing Atlanta Center
08:52AM 34.5572 -84.8836 336° Northwest 393 452 22,900 1,200 Climbing Atlanta Center
08:53AM 34.6675 -84.9378 338° Northwest 404 465 24,100 1,200 Climbing Atlanta Center
08:54AM 34.7756 -85.0072 332° Northwest 419 482 25,400 900 Climbing Atlanta Center
08:55AM 34.8728 -85.0969 323° Northwest 431 496 26,000 300 Climbing Atlanta Center
08:56AM 34.9722 -85.1919 322° Northwest 444 511 26,000 -420 Level Atlanta Center
08:58AM 35.1042 -85.4508 302° West 446 513 24,800 -720 Descending Memphis Center
08:59AM 35.1739 -85.5764 304° West 451 519 24,000 -420 Descending Memphis Center
09:00AM 35.2533 -85.6939 310° West 451 519 24,000 -660 Level Memphis Center
09:01AM 35.3547 -85.7850 324° Northwest 441 507 22,700 -2,700 Descending Memphis Center
09:02AM 35.4533 -85.8586 329° Northwest 433 498 18,700 -4,080 Descending Memphis Center
09:03AM 35.5497 -85.9272 330° Northwest 419 482 14,600 -3,480 Descending Memphis Center
09:04AM 35.6381 -86.0042 325° Northwest 398 458 11,800 -1,800 Descending Memphis Center
09:05AM 35.7053 -86.0825 317° Northwest 364 419 11,000 -900 Descending Memphis Center
09:06AM 35.7481 -86.1697 301° West 312 359 10,100 -1,440 Descending Memphis Center
09:07AM 35.7822 -86.2550 296° West 283 326 8,200 -1,740 Descending Memphis Center
09:08AM 35.8161 -86.3378 297° West 273 314 6,700 -1,200 Descending Memphis Center
09:09AM 35.8542 -86.4206 300° West 273 314 5,900 -900 Descending Memphis Center
09:10AM 35.8878 -86.4958 299° West 268 308 4,900 -1,200 Descending Memphis Center
09:11AM 35.9150 -86.5636 296° West 241 277 3,600 -960 Descending Memphis Center
09:12AM 35.9436 -86.6189 303° West 224 258 3,000 -600 Descending Memphis Center
09:13AM 35.9869 -86.6656 319° Northwest 207 238 2,400 -420 Descending Memphis Center
09:14AM 36.0275 -86.7022 324° Northwest 188 216 2,200 -360 Descending Memphis Center
09:15AM 36.0672 -86.7056 356° North 136 157 1,700 -660 Descending Memphis Center
09:16AM 36.1064 -86.6911 17° North 141 162 900 -600 Descending Memphis Center
09:17AM 36.1458 -86.6814 11° North 141 162 600 -300 Descending Memphis Center